This is the latest recevied weather packets stored in our database for station/object K9UO. If no packets are shown the sender has not sent any weather packets the latest 10 day(s).
| Time | Temp. | Humidity | Pressure | Rain* | Wind** | Luminosity | Snow |
|---|---|---|---|---|---|---|---|
| 1777429865 | 10.56° C | 1% | 1012.8 hPa | 0 mm | - | - | - |
| 1777428974 | 11.11° C | 1% | 1013.4 hPa | 0 mm | - | - | - |
| 1777428046 | 11.11° C | 1% | 1013.4 hPa | 0 mm | - | - | - |
| 1777427143 | 11.11° C | 1% | 1013.3 hPa | 0 mm | - | - | - |
| 1777426237 | 11.67° C | 1% | 1013.3 hPa | 0 mm | - | - | - |
| 1777425335 | 12.22° C | 1% | 1013.5 hPa | 0 mm | - | - | - |
| 1777424430 | 12.78° C | 1% | 1014.2 hPa | 0 mm | - | - | - |
| 1777423534 | 13.33° C | 1% | 1013.9 hPa | 0 mm | - | - | - |
| 1777422620 | 13.89° C | 4% | 1013.9 hPa | 0 mm | - | - | - |
| 1777421715 | 13.89° C | 11% | 1013.7 hPa | 0 mm | - | - | - |
| 1777420821 | 14.44° C | 17% | 1012.9 hPa | 0 mm | - | - | - |
| 1777419927 | 14.44° C | 23% | 1012.8 hPa | 0 mm | - | - | - |
| 1777419002 | 15° C | 25% | 1012.3 hPa | 0 mm | - | - | - |
| 1777418162 | 15.56° C | 33% | 1012.3 hPa | 0 mm | - | - | - |
| 1777417254 | 15.56° C | 29% | 1012.2 hPa | 0 mm | - | - | - |
| 1777416355 | 16.11° C | 36% | 1012.3 hPa | 0 mm | - | - | - |
| 1777415445 | 16.67° C | 38% | 1012.5 hPa | 0 mm | - | - | - |
| 1777414540 | 16.11° C | 33% | 1013.1 hPa | 0 mm | - | - | - |
| 1777413636 | 16.67° C | 40% | 1013.1 hPa | 0 mm | - | - | - |
| 1777412736 | 16.67° C | 40% | 1013.4 hPa | 0 mm | - | - | - |
| 1777411829 | 16.67° C | 36% | 1013.5 hPa | 0 mm | - | - | - |
| 1777410933 | 16.67° C | 34% | 1013.2 hPa | 0 mm | - | - | - |
| 1777410023 | 16.11° C | 29% | 1013.3 hPa | 0 mm | - | - | - |
| 1777409114 | 16.11° C | 34% | 1013.5 hPa | 0 mm | - | - | - |
| 1777408212 | 16.11° C | 23% | 1013.6 hPa | 0 mm | - | - | - |
* Rain latest hour (hover to see other rain measurements)
** Current wind speed in m/s (hover to see current wind gust speed)